createdAt,value
2019-03-30T00:00:53.248Z,56.42
2019-03-30T00:03:21.319Z,56.76
2019-03-30T00:05:48.785Z,56.62
2019-03-30T00:08:16.240Z,56.30
2019-03-30T00:10:43.863Z,56.56
2019-03-30T00:13:11.279Z,56.36
2019-03-30T00:15:38.863Z,57.12
2019-03-30T00:18:06.314Z,57.17
2019-03-30T00:20:33.905Z,56.84
2019-03-30T00:23:01.364Z,57.18
2019-03-30T00:25:28.807Z,57.86
2019-03-30T00:27:56.250Z,58.15
2019-03-30T00:30:23.732Z,58.53
2019-03-30T00:32:51.170Z,58.68
2019-03-30T00:35:18.633Z,58.38
2019-03-30T00:37:46.098Z,58.92
2019-03-30T00:40:13.531Z,58.36
2019-03-30T00:42:40.999Z,59.00
2019-03-30T00:45:08.419Z,59.35
2019-03-30T00:47:35.957Z,59.42
2019-03-30T00:50:03.445Z,59.28
2019-03-30T00:52:30.885Z,59.55
2019-03-30T00:54:58.344Z,59.47
2019-03-30T00:57:26.557Z,59.25
2019-03-30T00:59:54.749Z,58.84
2019-03-30T01:02:22.213Z,59.13
2019-03-30T01:04:49.684Z,59.43
2019-03-30T01:07:17.142Z,59.40
2019-03-30T01:09:44.581Z,59.55
2019-03-30T01:12:12.050Z,59.36
2019-03-30T01:14:39.487Z,59.24
2019-03-30T01:17:06.935Z,59.32
2019-03-30T01:19:34.392Z,59.41
2019-03-30T01:22:01.832Z,59.28
2019-03-30T01:24:29.270Z,59.22
2019-03-30T01:26:56.750Z,59.22
2019-03-30T01:29:24.196Z,59.38
2019-03-30T01:31:51.639Z,59.02
2019-03-30T01:34:19.101Z,59.07
2019-03-30T01:36:46.559Z,59.16
2019-03-30T01:39:14.005Z,59.05
2019-03-30T01:41:41.446Z,59.10
2019-03-30T01:44:09.351Z,58.88
2019-03-30T01:46:37.021Z,59.26
2019-03-30T01:49:05.139Z,59.34
2019-03-30T01:51:32.594Z,59.03
2019-03-30T01:54:00.046Z,58.92
2019-03-30T01:56:27.509Z,58.39
2019-03-30T01:58:54.962Z,59.06
2019-03-30T02:01:22.407Z,58.78
2019-03-30T02:03:49.909Z,58.70
2019-03-30T02:06:17.388Z,58.68
2019-03-30T02:08:44.835Z,58.51
2019-03-30T02:11:12.274Z,58.63
2019-03-30T02:13:39.730Z,58.51
2019-03-30T02:16:07.507Z,58.53
2019-03-30T02:18:34.965Z,58.82
2019-03-30T02:21:02.471Z,58.59
2019-03-30T02:23:29.870Z,58.59
2019-03-30T02:25:57.427Z,58.62
2019-03-30T02:28:24.870Z,58.56
2019-03-30T02:30:52.326Z,58.84
2019-03-30T02:33:19.831Z,58.98
2019-03-30T02:35:47.278Z,59.33
2019-03-30T02:38:14.721Z,59.44
2019-03-30T02:40:42.206Z,59.10
2019-03-30T02:43:09.664Z,59.01
2019-03-30T02:45:38.079Z,59.39
2019-03-30T02:48:05.542Z,59.27
2019-03-30T02:50:48.549Z,58.74
2019-03-30T02:53:00.490Z,58.59
2019-03-30T02:55:27.927Z,59.05
2019-03-30T02:57:55.412Z,59.03
2019-03-30T03:00:22.835Z,58.79
2019-03-30T03:02:50.282Z,59.70
2019-03-30T03:05:17.703Z,59.24
2019-03-30T03:07:46.032Z,59.05
2019-03-30T03:10:13.682Z,59.54
2019-03-30T03:12:41.127Z,59.49
2019-03-30T03:15:08.792Z,59.57
2019-03-30T03:17:36.285Z,59.61
2019-03-30T03:20:03.726Z,59.76
2019-03-30T03:22:31.216Z,59.66
2019-03-30T03:24:58.649Z,60.02
2019-03-30T03:27:26.109Z,59.58
2019-03-30T03:29:53.591Z,59.51
2019-03-30T03:32:21.041Z,59.26
2019-03-30T03:34:48.523Z,59.98
2019-03-30T03:37:15.953Z,59.77
2019-03-30T03:39:43.387Z,59.79
2019-03-30T03:42:10.850Z,59.93
2019-03-30T03:44:38.361Z,60.19
2019-03-30T03:47:05.804Z,60.02
2019-03-30T03:49:33.277Z,59.79
2019-03-30T03:52:00.712Z,60.02
2019-03-30T03:54:28.182Z,60.24
2019-03-30T03:56:55.633Z,59.81
2019-03-30T03:59:23.127Z,59.51
2019-03-30T04:01:50.618Z,59.58
2019-03-30T04:04:18.053Z,59.99
2019-03-30T04:06:45.487Z,59.50
2019-03-30T04:09:13.189Z,60.42
2019-03-30T04:11:40.648Z,60.20
2019-03-30T04:14:08.100Z,60.07
2019-03-30T04:16:35.551Z,60.27
2019-03-30T04:19:03.014Z,60.25
2019-03-30T04:21:43.782Z,60.44
2019-03-30T04:23:57.948Z,60.24
2019-03-30T04:26:25.389Z,60.18
2019-03-30T04:28:52.858Z,60.58
2019-03-30T04:31:20.325Z,60.81
2019-03-30T04:33:47.798Z,60.46
2019-03-30T04:36:15.218Z,60.45
2019-03-30T04:38:43.232Z,60.62
2019-03-30T04:41:10.698Z,60.92
2019-03-30T04:43:38.139Z,60.52
2019-03-30T04:46:05.590Z,60.26
2019-03-30T04:48:33.056Z,60.84
2019-03-30T04:51:00.516Z,60.56
2019-03-30T04:53:27.962Z,60.90
2019-03-30T04:55:55.420Z,61.07
2019-03-30T04:58:22.876Z,61.05
2019-03-30T05:00:50.335Z,61.46
2019-03-30T05:03:17.779Z,61.17
2019-03-30T05:05:45.230Z,61.35
2019-03-30T05:08:13.250Z,61.25
2019-03-30T05:10:40.701Z,61.66
2019-03-30T05:13:08.159Z,61.58
2019-03-30T05:15:35.582Z,61.29
2019-03-30T05:18:03.037Z,61.58
2019-03-30T05:20:30.486Z,61.35
2019-03-30T05:22:57.957Z,61.31
2019-03-30T05:25:26.219Z,61.31
2019-03-30T05:27:53.771Z,61.40
2019-03-30T05:30:21.217Z,61.29
2019-03-30T05:32:48.673Z,61.27
2019-03-30T05:35:16.169Z,61.01
2019-03-30T05:37:43.650Z,60.78
2019-03-30T05:40:11.103Z,61.07
2019-03-30T05:42:38.571Z,61.20
2019-03-30T05:45:06.022Z,60.85
2019-03-30T05:47:33.474Z,61.33
2019-03-30T05:50:00.927Z,60.58
2019-03-30T05:52:28.378Z,61.06
2019-03-30T05:54:55.815Z,61.09
2019-03-30T05:57:23.293Z,61.78
2019-03-30T05:59:50.720Z,61.53
2019-03-30T06:02:18.200Z,61.47
2019-03-30T06:04:45.658Z,61.55
2019-03-30T06:07:13.247Z,62.06
2019-03-30T06:09:40.666Z,62.14
2019-03-30T06:12:08.146Z,62.10
2019-03-30T06:14:35.581Z,62.94
2019-03-30T06:17:03.058Z,62.71
2019-03-30T06:19:30.495Z,62.47
2019-03-30T06:21:57.919Z,62.29
2019-03-30T06:24:25.415Z,62.33
2019-03-30T06:26:52.860Z,61.96
2019-03-30T06:29:20.321Z,61.66
2019-03-30T06:31:47.766Z,61.57
2019-03-30T06:34:15.231Z,61.84
2019-03-30T06:36:43.318Z,61.60
2019-03-30T06:39:10.787Z,61.27
2019-03-30T06:41:38.226Z,62.00
2019-03-30T06:44:05.672Z,61.63
2019-03-30T06:46:33.156Z,61.92
2019-03-30T06:49:00.609Z,62.61
2019-03-30T06:51:28.085Z,62.12
2019-03-30T06:53:55.506Z,62.74
2019-03-30T06:56:22.960Z,63.24
2019-03-30T06:58:50.410Z,62.80
2019-03-30T07:01:18.780Z,62.71
2019-03-30T07:03:46.253Z,62.31
2019-03-30T07:06:13.730Z,62.20
2019-03-30T07:08:41.287Z,61.88
2019-03-30T07:11:20.610Z,60.71
2019-03-30T07:13:36.241Z,60.85
2019-03-30T07:16:03.772Z,60.65
2019-03-30T07:18:31.508Z,59.38
2019-03-30T07:20:58.942Z,59.80
2019-03-30T07:23:27.170Z,59.44
2019-03-30T07:25:54.627Z,59.20
2019-03-30T07:28:22.122Z,58.45
2019-03-30T07:30:49.574Z,58.12
2019-03-30T07:33:17.000Z,58.48
2019-03-30T07:35:44.446Z,58.26
2019-03-30T07:38:11.894Z,58.50
2019-03-30T07:40:39.500Z,58.63
2019-03-30T07:43:06.942Z,57.98
2019-03-30T07:45:34.356Z,58.23
2019-03-30T07:48:01.833Z,58.34
2019-03-30T07:50:29.313Z,57.83
2019-03-30T07:52:56.776Z,57.96
2019-03-30T07:55:24.254Z,57.83
2019-03-30T07:57:51.718Z,57.38
2019-03-30T08:00:19.182Z,56.92
2019-03-30T08:02:46.631Z,56.78
2019-03-30T08:05:14.774Z,56.56
2019-03-30T08:07:42.944Z,56.71
2019-03-30T08:10:11.424Z,56.35
2019-03-30T08:12:39.739Z,55.87
2019-03-30T08:15:07.924Z,55.37
2019-03-30T08:17:35.457Z,55.50
2019-03-30T08:20:02.923Z,55.33
2019-03-30T08:22:30.374Z,54.19
2019-03-30T08:24:57.812Z,55.71
2019-03-30T08:27:25.273Z,54.91
2019-03-30T08:29:52.691Z,54.39
2019-03-30T08:32:20.149Z,53.81
2019-03-30T08:34:47.611Z,54.04
2019-03-30T08:37:16.938Z,54.65
2019-03-30T08:39:44.395Z,53.16
2019-03-30T08:42:11.883Z,51.83
2019-03-30T08:44:39.362Z,51.98
2019-03-30T08:47:06.850Z,50.83
2019-03-30T08:49:34.346Z,50.97
2019-03-30T08:52:01.814Z,51.44
2019-03-30T08:54:29.615Z,50.94
2019-03-30T08:56:57.128Z,51.34
2019-03-30T08:59:25.086Z,50.85
2019-03-30T09:01:52.566Z,49.88
2019-03-30T09:04:20.079Z,48.99
2019-03-30T09:06:47.558Z,49.46
2019-03-30T09:09:15.035Z,49.05
2019-03-30T09:11:43.582Z,48.53
2019-03-30T09:14:10.012Z,48.27
2019-03-30T09:16:37.510Z,48.07
2019-03-30T09:19:04.974Z,48.24
2019-03-30T09:21:32.492Z,46.90
2019-03-30T09:24:09.422Z,47.27
2019-03-30T09:26:27.494Z,47.53
2019-03-30T09:28:55.007Z,47.20
2019-03-30T09:31:22.473Z,47.44
2019-03-30T09:33:49.949Z,47.72
2019-03-30T09:36:17.514Z,46.86
2019-03-30T09:38:45.100Z,46.12
2019-03-30T09:41:12.516Z,47.41
2019-03-30T09:43:40.011Z,46.99
2019-03-30T09:46:07.560Z,47.08
2019-03-30T09:48:35.050Z,46.37
2019-03-30T09:51:02.499Z,45.98
2019-03-30T11:22:42.191Z,44.39
2019-03-30T11:25:09.632Z,44.56
2019-03-30T11:27:37.091Z,44.88
2019-03-30T11:30:05.308Z,43.09
2019-03-30T11:32:32.783Z,43.23
2019-03-30T11:35:00.341Z,43.41
2019-03-30T11:37:27.792Z,44.36
2019-03-30T11:39:55.285Z,44.44
2019-03-30T11:42:22.723Z,44.28
2019-03-30T11:44:50.180Z,42.31
2019-03-30T11:47:17.659Z,42.85
2019-03-30T11:49:45.097Z,43.50
2019-03-30T11:52:12.560Z,43.14
2019-03-30T11:54:39.977Z,43.56
2019-03-30T11:57:07.428Z,43.07
2019-03-30T11:59:35.683Z,42.35
2019-03-30T12:02:03.139Z,42.92
2019-03-30T12:04:30.582Z,41.74
2019-03-30T12:06:58.041Z,41.41
2019-03-30T12:09:25.489Z,41.74
2019-03-30T12:11:54.002Z,41.80
2019-03-30T12:14:21.453Z,42.65
2019-03-30T12:16:48.918Z,43.23
2019-03-30T12:19:16.383Z,41.67
2019-03-30T12:21:43.813Z,41.59
2019-03-30T12:24:11.280Z,41.05
2019-03-30T12:26:38.730Z,41.53
2019-03-30T12:29:06.188Z,42.33
2019-03-30T12:31:33.650Z,40.73
2019-03-30T12:34:01.111Z,40.35
2019-03-30T12:36:28.531Z,40.62
2019-03-30T12:38:55.968Z,40.58
2019-03-30T12:41:23.997Z,41.18
2019-03-30T12:43:51.439Z,41.00
2019-03-30T12:46:18.907Z,41.57
2019-03-30T12:48:46.366Z,40.37
2019-03-30T12:51:13.845Z,39.81
2019-03-30T12:53:50.259Z,40.95
2019-03-30T12:56:09.066Z,41.10
2019-03-30T12:58:37.078Z,39.94
2019-03-30T13:01:04.601Z,38.63
2019-03-30T13:03:32.043Z,38.83
2019-03-30T13:05:59.512Z,40.43
2019-03-30T13:08:26.969Z,40.66
2019-03-30T13:10:54.432Z,39.78
2019-03-30T13:13:21.980Z,40.67
2019-03-30T13:15:49.496Z,39.72
2019-03-30T13:18:18.391Z,39.34
2019-03-30T13:20:46.886Z,37.89
2019-03-30T13:23:14.703Z,38.95
2019-03-30T13:25:43.305Z,38.64
2019-03-30T13:28:11.623Z,38.58
2019-03-30T13:30:40.265Z,39.57
2019-03-30T13:33:08.554Z,38.50
2019-03-30T13:35:36.818Z,38.68
2019-03-30T13:38:05.385Z,39.26
2019-03-30T13:40:34.003Z,39.14
2019-03-30T13:43:02.283Z,38.69
2019-03-30T13:45:30.925Z,37.29
2019-03-30T13:47:59.386Z,37.73
2019-03-30T13:50:30.821Z,37.76
2019-03-30T13:52:56.095Z,38.36
2019-03-30T13:55:24.471Z,37.59
2019-03-30T13:57:52.656Z,36.93
2019-03-30T14:00:20.500Z,38.93
2019-03-30T14:02:48.726Z,38.22
2019-03-30T14:05:16.355Z,38.17
2019-03-30T14:07:43.807Z,38.88
2019-03-30T14:10:11.267Z,38.29
2019-03-30T14:12:38.703Z,39.16
2019-03-30T14:15:09.161Z,38.91
2019-03-30T14:17:34.012Z,39.47
2019-03-30T14:20:02.866Z,38.91
2019-03-30T14:22:30.406Z,38.19
2019-03-30T14:24:57.855Z,39.13
2019-03-30T14:27:25.294Z,38.41
2019-03-30T14:29:54.518Z,37.97
2019-03-30T14:32:20.923Z,38.18
2019-03-30T14:34:48.403Z,37.84
2019-03-30T14:37:16.022Z,38.05
2019-03-30T14:39:43.641Z,37.74
2019-03-30T14:42:11.192Z,38.04
2019-03-30T14:44:38.805Z,38.42
2019-03-30T14:47:06.658Z,38.15
2019-03-30T14:49:34.137Z,38.35
2019-03-30T14:52:01.597Z,37.89
2019-03-30T14:54:29.130Z,38.51
2019-03-30T14:56:57.145Z,38.41
2019-03-30T14:59:24.593Z,38.15
2019-03-30T15:01:52.085Z,39.07
2019-03-30T15:04:19.592Z,38.04
2019-03-30T15:06:47.036Z,38.45
2019-03-30T15:09:14.494Z,38.84
2019-03-30T15:11:41.963Z,38.71
2019-03-30T15:14:09.420Z,39.20
2019-03-30T15:16:36.943Z,38.83
2019-03-30T15:19:04.553Z,38.89
2019-03-30T15:21:32.106Z,38.96
2019-03-30T15:23:59.556Z,39.20
2019-03-30T15:26:28.087Z,40.01
2019-03-30T15:28:55.524Z,39.82
2019-03-30T15:31:23.004Z,41.02
2019-03-30T15:33:53.191Z,40.06
2019-03-30T15:36:17.941Z,39.81
2019-03-30T15:38:45.381Z,41.05
2019-03-30T15:41:12.855Z,40.27
2019-03-30T15:43:40.291Z,40.35
2019-03-30T15:46:07.822Z,40.53
2019-03-30T15:48:35.267Z,40.13
2019-03-30T15:51:02.727Z,39.58
2019-03-30T15:56:03.886Z,38.85
2019-03-30T15:58:31.318Z,38.98
2019-03-30T16:00:58.817Z,38.72
2019-03-30T16:03:26.285Z,38.75
2019-03-30T16:05:53.713Z,38.59
2019-03-30T16:08:21.169Z,38.34
2019-03-30T16:10:52.056Z,38.83
2019-03-30T16:13:16.057Z,38.13
2019-03-30T16:15:44.631Z,39.22
2019-03-30T16:18:10.988Z,39.59
2019-03-30T16:20:38.424Z,40.02
2019-03-30T16:23:06.477Z,39.92
2019-03-30T16:25:33.934Z,40.71
2019-03-30T16:28:01.411Z,40.50
2019-03-30T16:30:29.369Z,39.95
2019-03-30T16:32:56.811Z,40.52
2019-03-30T16:35:24.252Z,40.14
2019-03-30T16:37:51.675Z,40.27
2019-03-30T16:40:19.169Z,40.82
2019-03-30T16:42:46.588Z,40.66
2019-03-30T16:45:14.013Z,40.63
2019-03-30T16:47:41.471Z,39.46
2019-03-30T16:50:08.908Z,39.31
2019-03-30T16:52:36.361Z,39.49
2019-03-30T16:55:03.860Z,39.67
2019-03-30T16:57:42.597Z,39.17
2019-03-30T16:59:58.744Z,41.18
2019-03-30T17:02:26.222Z,40.64
2019-03-30T17:04:53.699Z,39.45
2019-03-30T17:07:21.652Z,39.55
2019-03-30T17:09:49.132Z,40.42
2019-03-30T17:12:16.542Z,40.00
2019-03-30T17:14:43.975Z,40.21
2019-03-30T17:17:11.435Z,40.28
2019-03-30T17:19:39.124Z,40.75
2019-03-30T17:22:06.587Z,41.33
2019-03-30T17:24:34.033Z,40.92
2019-03-30T17:27:01.490Z,41.76
2019-03-30T17:29:28.981Z,40.37
2019-03-30T17:31:56.408Z,40.16
2019-03-30T17:34:23.861Z,42.19
2019-03-30T17:36:51.337Z,41.42
2019-03-30T17:39:18.832Z,40.31
2019-03-30T17:41:46.264Z,42.14
2019-03-30T17:44:13.715Z,41.87
2019-03-30T17:46:41.163Z,42.48
2019-03-30T17:49:09.164Z,41.97
2019-03-30T17:51:36.689Z,42.65
2019-03-30T17:54:04.140Z,42.59
2019-03-30T17:56:31.603Z,42.54
2019-03-30T17:58:59.521Z,42.14
2019-03-30T18:01:26.944Z,42.33
2019-03-30T18:03:54.354Z,42.96
2019-03-30T18:06:22.596Z,42.82
2019-03-30T18:08:50.047Z,43.49
2019-03-30T18:11:17.493Z,43.30
2019-03-30T18:13:44.931Z,43.67
2019-03-30T18:16:12.394Z,43.96
2019-03-30T18:18:39.848Z,43.72
2019-03-30T18:21:07.323Z,44.26
2019-03-30T18:23:34.731Z,44.30
2019-03-30T18:26:02.167Z,44.49
2019-03-30T18:28:29.586Z,44.88
2019-03-30T18:30:57.040Z,44.48
2019-03-30T18:33:24.495Z,44.85
2019-03-30T18:35:51.924Z,45.55
2019-03-30T18:38:19.385Z,45.36
2019-03-30T18:40:46.803Z,45.83
2019-03-30T18:43:14.277Z,45.39
2019-03-30T18:45:42.685Z,45.49
2019-03-30T18:48:10.892Z,45.53
2019-03-30T18:50:38.377Z,45.77
2019-03-30T18:53:06.551Z,45.94
2019-03-30T18:55:33.979Z,45.60
2019-03-30T18:58:02.342Z,45.94
2019-03-30T19:00:29.817Z,46.73
2019-03-30T19:02:57.263Z,46.60
2019-03-30T19:05:24.675Z,47.00
2019-03-30T19:07:52.926Z,46.73
2019-03-30T19:10:20.370Z,47.00
2019-03-30T19:12:47.825Z,46.95
2019-03-30T19:15:17.197Z,46.77
2019-03-30T19:17:44.633Z,46.70
2019-03-30T19:20:12.103Z,46.54
2019-03-30T19:22:39.573Z,47.33
2019-03-30T19:25:07.031Z,48.02
2019-03-30T19:27:34.471Z,47.92
2019-03-30T19:30:02.964Z,48.61
2019-03-30T19:32:30.438Z,48.53
2019-03-30T19:34:57.885Z,48.21
2019-03-30T19:37:25.334Z,48.36
2019-03-30T19:39:53.751Z,48.05
2019-03-30T19:42:21.191Z,48.35
2019-03-30T19:44:48.619Z,48.26
2019-03-30T19:47:16.058Z,48.44
2019-03-30T19:49:43.524Z,48.10
2019-03-30T19:52:12.605Z,48.14
2019-03-30T19:54:40.187Z,48.23
2019-03-30T19:57:07.635Z,48.59
2019-03-30T19:59:35.109Z,48.25
2019-03-30T20:02:02.541Z,47.83
2019-03-30T20:04:30.018Z,48.54
2019-03-30T20:06:57.446Z,49.18
2019-03-30T20:09:24.907Z,48.78
2019-03-30T20:11:52.361Z,49.20
2019-03-30T20:14:19.803Z,48.70
2019-03-30T20:16:47.263Z,49.28
2019-03-30T20:19:14.734Z,48.80
2019-03-30T20:21:42.182Z,48.91
2019-03-30T20:24:09.656Z,48.53
2019-03-30T20:26:37.108Z,49.13
2019-03-30T20:29:05.183Z,49.88
2019-03-30T20:31:32.634Z,49.83
2019-03-30T20:34:00.073Z,49.48
2019-03-30T20:36:27.567Z,49.58
2019-03-30T20:38:54.987Z,49.31
2019-03-30T20:41:22.478Z,49.37
2019-03-30T20:43:49.911Z,48.90
2019-03-30T20:46:17.814Z,48.44
2019-03-30T20:48:46.242Z,47.98
2019-03-30T20:51:13.704Z,47.90
2019-03-30T20:53:41.158Z,47.73
2019-03-30T20:56:08.653Z,47.75
2019-03-30T20:58:36.131Z,47.85
2019-03-30T21:01:04.615Z,48.99
2019-03-30T21:03:32.058Z,49.09
2019-03-30T21:05:59.483Z,50.03
2019-03-30T21:08:26.930Z,50.17
2019-03-30T21:10:56.496Z,51.19
2019-03-30T21:13:24.007Z,51.58
2019-03-30T21:15:51.444Z,52.02
2019-03-30T21:18:18.906Z,51.88
2019-03-30T21:20:46.335Z,52.11
2019-03-30T21:23:13.791Z,52.87
2019-03-30T21:25:41.422Z,52.91
2019-03-30T21:28:08.866Z,52.45
2019-03-30T21:30:36.317Z,52.22
2019-03-30T21:33:03.799Z,54.19
2019-03-30T21:35:31.245Z,52.88
2019-03-30T21:37:58.855Z,52.17
2019-03-30T21:40:26.151Z,52.69
2019-03-30T21:42:53.567Z,53.11
2019-03-30T21:45:21.010Z,53.90
2019-03-30T21:47:48.581Z,54.17
2019-03-30T21:50:16.047Z,53.93
2019-03-30T21:52:43.479Z,52.92
2019-03-30T21:55:10.911Z,53.34
2019-03-30T21:57:38.395Z,53.21
2019-03-30T22:00:10.591Z,52.78
2019-03-30T22:02:33.299Z,52.65
2019-03-30T22:05:00.765Z,52.26
2019-03-30T22:07:28.238Z,52.28
2019-03-30T22:09:55.668Z,54.22
2019-03-30T22:12:23.148Z,54.13
2019-03-30T22:14:50.833Z,54.38
2019-03-30T22:17:18.261Z,54.58
2019-03-30T22:19:45.737Z,54.00
2019-03-30T22:22:13.185Z,54.18
2019-03-30T22:24:40.611Z,54.68
2019-03-30T22:27:08.101Z,54.08
2019-03-30T22:29:36.186Z,53.48
2019-03-30T22:32:03.675Z,53.07
2019-03-30T22:34:31.748Z,52.93
2019-03-30T22:36:59.222Z,53.81
2019-03-30T22:39:26.670Z,53.69
2019-03-30T22:41:55.214Z,54.22
2019-03-30T22:44:22.773Z,54.08
2019-03-30T22:46:50.229Z,54.58
2019-03-30T22:49:17.672Z,55.23
2019-03-30T22:51:45.102Z,55.73
2019-03-30T22:54:12.576Z,55.71
2019-03-30T22:56:40.048Z,56.25
2019-03-30T22:59:07.709Z,56.69
2019-03-30T23:01:35.165Z,56.23
2019-03-30T23:04:02.617Z,56.61
2019-03-30T23:06:30.062Z,56.58
2019-03-30T23:08:57.523Z,57.72
2019-03-30T23:11:24.958Z,57.99
2019-03-30T23:13:52.445Z,58.75
2019-03-30T23:16:19.893Z,58.61
2019-03-30T23:18:47.358Z,58.51
2019-03-30T23:21:14.813Z,58.29
2019-03-30T23:23:42.246Z,58.31
2019-03-30T23:26:09.709Z,58.34
2019-03-30T23:28:37.378Z,58.14
2019-03-30T23:31:04.840Z,58.06
2019-03-30T23:33:32.305Z,58.22
2019-03-30T23:35:59.743Z,58.03
2019-03-30T23:38:27.178Z,58.00
2019-03-30T23:40:54.627Z,57.91
2019-03-30T23:43:22.079Z,57.17
2019-03-30T23:45:50.554Z,56.79
2019-03-30T23:48:18.024Z,56.67
2019-03-30T23:50:45.786Z,57.08
2019-03-30T23:53:13.246Z,57.72
2019-03-30T23:55:40.675Z,57.59
2019-03-30T23:58:08.130Z,58.33
